createdAt,value
2023-02-09T00:01:45.157Z,6.28
2023-02-09T00:04:13.218Z,6.95
2023-02-09T00:06:41.359Z,5.22
2023-02-09T00:09:09.320Z,7.00
2023-02-09T00:11:55.122Z,8.55
2023-02-09T00:14:23.493Z,6.47
2023-02-09T00:16:53.855Z,7.05
2023-02-09T00:19:23.052Z,5.85
2023-02-09T00:21:51.089Z,7.38
2023-02-09T00:24:19.182Z,7.53
2023-02-09T00:26:48.237Z,6.55
2023-02-09T00:29:22.354Z,5.90
2023-02-09T00:31:53.242Z,5.25
2023-02-09T00:34:21.398Z,7.38
2023-02-09T00:36:49.486Z,7.55
2023-02-09T00:39:17.696Z,8.10
2023-02-09T00:42:03.123Z,6.50
2023-02-09T00:44:31.667Z,7.43
2023-02-09T00:47:01.427Z,8.13
2023-02-09T00:49:29.992Z,7.00
2023-02-09T00:51:58.317Z,7.38
2023-02-09T00:54:27.444Z,6.90
2023-02-09T00:56:56.092Z,6.40
2023-02-09T00:59:24.145Z,8.65
2023-02-09T01:01:52.180Z,8.15
2023-02-09T01:04:21.798Z,7.07
2023-02-09T01:06:49.913Z,7.68
2023-02-09T01:09:18.519Z,7.20
2023-02-09T01:11:46.579Z,7.80
2023-02-09T01:14:14.905Z,7.80
2023-02-09T01:16:42.948Z,7.78
2023-02-09T01:19:13.198Z,8.15
2023-02-09T01:21:43.305Z,7.32
2023-02-09T01:24:15.510Z,7.80
2023-02-09T01:26:43.990Z,6.38
2023-02-09T01:29:14.836Z,7.60
2023-02-09T01:31:43.765Z,7.68
2023-02-09T01:34:14.698Z,7.20
2023-02-09T01:36:44.342Z,10.38
2023-02-09T01:39:14.687Z,7.35
2023-02-09T01:41:43.590Z,8.73
2023-02-09T01:44:45.139Z,7.45
2023-02-09T01:47:15.131Z,8.75
2023-02-09T01:49:45.631Z,7.25
2023-02-09T01:52:21.531Z,7.22
2023-02-09T01:54:52.629Z,7.70
2023-02-09T01:57:24.923Z,7.95
2023-02-09T01:59:55.826Z,8.02
2023-02-09T02:02:24.722Z,8.18
2023-02-09T02:04:53.796Z,7.93
2023-02-09T02:07:29.289Z,7.97
2023-02-09T02:09:57.513Z,8.85
2023-02-09T02:12:26.208Z,6.40
2023-02-09T02:14:54.660Z,7.85
2023-02-09T02:17:35.647Z,7.55
2023-02-09T02:20:50.286Z,7.55
2023-02-09T02:23:28.610Z,9.25
2023-02-09T02:26:37.881Z,8.40
2023-02-09T02:29:30.918Z,7.82
2023-02-09T02:32:18.385Z,6.90
2023-02-09T02:34:51.866Z,7.53
2023-02-09T02:37:31.917Z,9.00
2023-02-09T02:40:10.548Z,8.50
2023-02-09T02:42:52.051Z,6.63
2023-02-09T02:45:29.472Z,8.32
2023-02-09T02:48:06.020Z,9.10
2023-02-09T02:50:38.553Z,8.10
2023-02-09T02:53:10.572Z,6.72
2023-02-09T02:55:40.266Z,7.95
2023-02-09T02:58:12.536Z,7.53
2023-02-09T03:00:46.506Z,6.80
2023-02-09T03:03:21.889Z,6.88
2023-02-09T03:05:51.353Z,6.82
2023-02-09T03:08:19.644Z,9.23
2023-02-09T03:10:48.035Z,7.90
2023-02-09T03:13:27.174Z,7.28
2023-02-09T03:16:07.386Z,8.65
2023-02-09T03:18:45.024Z,9.60
2023-02-09T03:21:18.248Z,7.88
2023-02-09T03:23:49.696Z,7.43
2023-02-09T03:26:21.605Z,8.90
2023-02-09T03:28:52.571Z,8.65
2023-02-09T03:31:22.602Z,7.30
2023-02-09T03:33:52.373Z,7.63
2023-02-09T03:36:21.780Z,7.13
2023-02-09T03:38:49.878Z,5.85
2023-02-09T03:41:17.992Z,7.45
2023-02-09T03:44:06.087Z,7.88
2023-02-09T03:46:34.398Z,7.93
2023-02-09T03:49:03.808Z,7.32
2023-02-09T03:51:31.984Z,7.35
2023-02-09T03:54:00.407Z,7.70
2023-02-09T03:56:28.492Z,6.93
2023-02-09T03:58:56.440Z,7.97
2023-02-09T04:01:25.008Z,8.30
2023-02-09T04:03:52.950Z,9.35
2023-02-09T04:06:22.554Z,7.15
2023-02-09T04:08:50.614Z,8.07
2023-02-09T04:11:18.731Z,8.65
2023-02-09T04:13:46.749Z,7.65
2023-02-09T04:16:14.733Z,7.45
2023-02-09T04:18:43.055Z,7.70
2023-02-09T04:21:11.404Z,7.40
2023-02-09T04:23:40.782Z,8.07
2023-02-09T04:26:09.206Z,7.65
2023-02-09T04:28:37.428Z,6.07
2023-02-09T04:31:05.998Z,7.60
2023-02-09T04:33:34.208Z,6.25
2023-02-09T04:36:02.422Z,6.70
2023-02-09T04:38:30.514Z,7.47
2023-02-09T04:41:01.444Z,7.70
2023-02-09T04:43:29.903Z,7.00
2023-02-09T04:45:58.575Z,6.70
2023-02-09T04:48:29.189Z,8.55
2023-02-09T04:50:57.899Z,7.85
2023-02-09T04:53:25.940Z,7.68
2023-02-09T04:55:54.041Z,6.20
2023-02-09T04:58:40.786Z,6.45
2023-02-09T05:01:11.236Z,6.18
2023-02-09T05:03:39.316Z,7.95
2023-02-09T05:06:07.830Z,6.03
2023-02-09T05:08:36.214Z,6.82
2023-02-09T05:11:04.193Z,6.57
2023-02-09T05:13:33.663Z,6.75
2023-02-09T05:16:01.617Z,6.90
2023-02-09T05:18:30.036Z,6.93
2023-02-09T05:20:58.065Z,6.75
2023-02-09T05:23:25.992Z,7.28
2023-02-09T05:25:54.703Z,7.70
2023-02-09T05:28:22.795Z,6.28
2023-02-09T05:30:53.890Z,8.30
2023-02-09T05:33:22.786Z,8.10
2023-02-09T05:35:52.365Z,6.30
2023-02-09T05:38:20.854Z,6.93
2023-02-09T05:40:49.304Z,8.00
2023-02-09T05:43:17.724Z,8.02
2023-02-09T05:45:46.842Z,7.47
2023-02-09T05:48:16.375Z,7.03
2023-02-09T05:50:44.729Z,7.63
2023-02-09T05:53:14.446Z,7.53
2023-02-09T05:55:44.017Z,6.18
2023-02-09T05:58:12.207Z,8.43
2023-02-09T06:00:40.339Z,7.63
2023-02-09T06:03:08.893Z,7.60
2023-02-09T06:05:38.437Z,9.40
2023-02-09T06:08:06.779Z,8.23
2023-02-09T06:10:35.165Z,8.20
2023-02-09T06:13:03.635Z,8.65
2023-02-09T06:15:31.964Z,7.35
2023-02-09T06:18:00.034Z,6.38
2023-02-09T06:20:28.351Z,6.38
2023-02-09T06:22:57.772Z,5.68
2023-02-09T06:25:25.839Z,6.38
2023-02-09T06:27:54.092Z,6.78
2023-02-09T06:30:23.024Z,7.10
2023-02-09T06:32:51.493Z,7.05
2023-02-09T06:35:19.734Z,5.90
2023-02-09T06:37:48.188Z,7.07
2023-02-09T06:40:18.181Z,7.90
2023-02-09T06:42:46.831Z,7.82
2023-02-09T06:45:17.014Z,6.43
2023-02-09T06:47:46.732Z,6.13
2023-02-09T06:50:17.285Z,6.75
2023-02-09T06:52:45.775Z,8.73
2023-02-09T06:55:14.490Z,8.30
2023-02-09T06:57:45.005Z,7.28
2023-02-09T07:00:15.156Z,8.35
2023-02-09T07:02:43.649Z,8.90
2023-02-09T07:05:12.109Z,9.63
2023-02-09T07:07:40.772Z,7.40
2023-02-09T07:10:10.502Z,7.95
2023-02-09T07:12:40.575Z,8.38
2023-02-09T07:15:15.962Z,6.55
2023-02-09T07:17:44.230Z,7.43
2023-02-09T07:20:13.402Z,8.13
2023-02-09T07:22:42.153Z,7.70
2023-02-09T07:25:10.564Z,7.57
2023-02-09T07:27:39.347Z,6.97
2023-02-09T07:30:08.214Z,8.45
2023-02-09T07:32:39.704Z,10.45
2023-02-09T07:35:08.100Z,10.20
2023-02-09T07:37:36.597Z,9.13
2023-02-09T07:40:05.709Z,8.82
2023-02-09T07:42:34.010Z,8.00
2023-02-09T07:45:04.406Z,8.40
2023-02-09T07:47:32.495Z,10.40
2023-02-09T07:50:01.984Z,8.73
2023-02-09T07:52:30.030Z,6.85
2023-02-09T07:54:58.858Z,8.55
2023-02-09T07:57:28.611Z,8.48
2023-02-09T07:59:57.234Z,7.80
2023-02-09T08:02:54.242Z,7.75
2023-02-09T08:05:29.499Z,7.65
2023-02-09T08:07:58.270Z,8.55
2023-02-09T08:10:26.997Z,9.18
2023-02-09T08:13:02.514Z,7.90
2023-02-09T08:15:40.380Z,8.25
2023-02-09T08:18:13.515Z,8.10
2023-02-09T08:20:44.609Z,9.50
2023-02-09T08:23:17.287Z,7.15
2023-02-09T08:25:48.201Z,7.72
2023-02-09T08:28:17.179Z,6.68
2023-02-09T08:30:46.068Z,7.03
2023-02-09T08:33:14.557Z,8.80
2023-02-09T08:35:44.985Z,7.40
2023-02-09T08:38:13.507Z,7.40
2023-02-09T08:40:44.272Z,6.88
2023-02-09T08:43:13.793Z,7.00
2023-02-09T08:45:43.284Z,8.13
2023-02-09T08:48:12.374Z,8.00
2023-02-09T08:50:41.002Z,8.52
2023-02-09T08:53:10.854Z,8.80
2023-02-09T08:55:39.765Z,7.75
2023-02-09T08:58:08.387Z,9.05
2023-02-09T09:00:36.853Z,8.07
2023-02-09T09:03:06.815Z,8.50
2023-02-09T09:05:36.187Z,8.02
2023-02-09T09:08:05.735Z,9.88
2023-02-09T09:10:35.893Z,8.27
2023-02-09T09:13:04.260Z,9.75
2023-02-09T09:15:32.260Z,7.32
2023-02-09T09:18:00.792Z,8.45
2023-02-09T09:20:29.725Z,10.18
2023-02-09T09:22:59.588Z,9.27
2023-02-09T09:25:27.809Z,9.60
2023-02-09T09:27:58.696Z,8.48
2023-02-09T09:30:27.276Z,9.00
2023-02-09T09:32:55.485Z,8.73
2023-02-09T09:35:24.024Z,10.32
2023-02-09T09:37:53.280Z,8.80
2023-02-09T09:40:24.418Z,9.50
2023-02-09T09:42:56.551Z,9.20
2023-02-09T09:45:29.593Z,9.07
2023-02-09T09:47:59.026Z,10.48
2023-02-09T09:50:31.979Z,8.77
2023-02-09T09:53:06.302Z,9.35
2023-02-09T09:55:35.817Z,10.07
2023-02-09T09:58:06.729Z,8.10
2023-02-09T10:00:40.044Z,8.68
2023-02-09T10:03:15.823Z,9.93
2023-02-09T10:05:45.602Z,10.27
2023-02-09T10:08:23.128Z,9.75
2023-02-09T10:10:58.198Z,8.80
2023-02-09T10:13:32.050Z,10.40
2023-02-09T10:16:02.209Z,10.05
2023-02-09T10:18:35.947Z,8.55
2023-02-09T10:21:07.988Z,9.57
2023-02-09T10:23:42.326Z,9.60
2023-02-09T10:26:23.411Z,9.38
2023-02-09T10:28:53.424Z,10.13
2023-02-09T10:31:30.328Z,8.20
2023-02-09T10:34:01.954Z,9.55
2023-02-09T10:36:33.085Z,9.63
2023-02-09T10:39:15.129Z,8.93
2023-02-09T10:41:46.169Z,7.63
2023-02-09T10:44:21.948Z,10.00
2023-02-09T10:46:53.662Z,7.80
2023-02-09T10:49:31.245Z,11.27
2023-02-09T10:52:08.397Z,8.93
2023-02-09T10:54:37.026Z,8.23
2023-02-09T10:57:22.421Z,9.10
2023-02-09T10:59:54.872Z,9.73
2023-02-09T11:02:52.341Z,9.38
2023-02-09T11:05:34.470Z,8.40
2023-02-09T11:08:13.121Z,8.32
2023-02-09T11:10:49.988Z,8.98
2023-02-09T11:13:22.705Z,8.82
2023-02-09T11:16:18.694Z,7.72
2023-02-09T11:18:58.065Z,8.55
2023-02-09T11:21:37.979Z,9.45
2023-02-09T11:24:13.590Z,9.15
2023-02-09T11:26:49.444Z,8.13
2023-02-09T11:29:25.986Z,10.20
2023-02-09T11:32:09.794Z,8.35
2023-02-09T11:34:55.188Z,8.70
2023-02-09T11:37:36.697Z,8.52
2023-02-09T11:40:24.895Z,9.23
2023-02-09T11:43:02.851Z,7.28
2023-02-09T11:45:36.839Z,8.23
2023-02-09T11:48:11.868Z,8.10
2023-02-09T11:50:52.833Z,7.70
2023-02-09T11:53:33.171Z,7.72
2023-02-09T11:56:04.595Z,8.75
2023-02-09T11:58:42.613Z,7.38
2023-02-09T12:01:22.962Z,8.68
2023-02-09T12:04:12.365Z,9.10
2023-02-09T12:06:46.161Z,9.60
2023-02-09T12:09:30.604Z,8.35
2023-02-09T12:12:09.230Z,8.25
2023-02-09T12:15:04.291Z,7.03
2023-02-09T12:17:41.426Z,9.23
2023-02-09T12:20:23.936Z,8.68
2023-02-09T12:22:57.693Z,8.73
2023-02-09T12:25:36.786Z,8.32
2023-02-09T12:28:19.820Z,10.95
2023-02-09T12:31:02.994Z,8.65
2023-02-09T12:33:34.505Z,8.68
2023-02-09T12:36:06.305Z,8.15
2023-02-09T12:39:07.381Z,9.73
2023-02-09T12:42:18.558Z,8.35
2023-02-09T12:44:56.292Z,8.40
2023-02-09T12:47:45.678Z,9.52
2023-02-09T12:50:28.484Z,8.32
2023-02-09T12:53:43.720Z,7.82
2023-02-09T12:56:29.485Z,8.45
2023-02-09T12:59:14.088Z,8.63
2023-02-09T13:02:11.173Z,9.18
2023-02-09T13:04:46.731Z,8.07
2023-02-09T13:07:24.786Z,8.50
2023-02-09T13:09:53.874Z,9.27
2023-02-09T13:12:34.259Z,7.40
2023-02-09T13:15:07.897Z,10.73
2023-02-09T13:17:41.557Z,7.78
2023-02-09T13:20:39.201Z,10.90
2023-02-09T13:23:29.995Z,9.35
2023-02-09T13:26:03.284Z,9.07
2023-02-09T13:28:32.868Z,10.10
2023-02-09T13:31:01.871Z,8.98
2023-02-09T13:33:42.536Z,9.55
2023-02-09T13:36:25.443Z,8.35
2023-02-09T13:38:54.524Z,9.00
2023-02-09T13:41:31.034Z,8.40
2023-02-09T13:44:00.718Z,8.82
2023-02-09T13:46:34.377Z,9.45
2023-02-09T13:49:13.653Z,8.75
2023-02-09T13:51:42.207Z,8.63
2023-02-09T13:54:19.869Z,9.35
2023-02-09T13:56:48.462Z,9.15
2023-02-09T13:59:18.155Z,9.68
2023-02-09T14:01:47.334Z,8.00
2023-02-09T14:04:19.015Z,7.93
2023-02-09T14:06:53.368Z,9.48
2023-02-09T14:09:25.770Z,7.60
2023-02-09T14:11:57.387Z,8.90
2023-02-09T14:14:50.358Z,9.75
2023-02-09T14:17:26.235Z,9.68
2023-02-09T14:19:54.752Z,9.27
2023-02-09T14:22:31.292Z,11.52
2023-02-09T14:24:59.530Z,9.00
2023-02-09T14:27:33.097Z,9.30
2023-02-09T14:30:02.802Z,9.75
2023-02-09T14:32:35.651Z,11.07
2023-02-09T14:35:18.174Z,10.95
2023-02-09T14:37:47.421Z,8.93
2023-02-09T14:40:24.053Z,9.63
2023-02-09T14:43:00.987Z,9.82
2023-02-09T14:45:44.961Z,9.45
2023-02-09T14:48:18.573Z,8.43
2023-02-09T14:50:47.231Z,10.13
2023-02-09T14:53:17.797Z,9.90
2023-02-09T14:55:46.350Z,10.30
2023-02-09T14:58:21.806Z,10.52
2023-02-09T15:00:53.488Z,10.45
2023-02-09T15:03:22.414Z,9.20
2023-02-09T15:05:52.544Z,9.75
2023-02-09T15:08:23.633Z,10.90
2023-02-09T15:10:55.284Z,9.55
2023-02-09T15:13:23.683Z,10.00
2023-02-09T15:15:53.286Z,10.05
2023-02-09T15:18:24.112Z,9.60
2023-02-09T15:20:52.607Z,9.13
2023-02-09T15:23:20.783Z,8.75
2023-02-09T15:25:49.399Z,9.57
2023-02-09T15:28:28.444Z,9.07
2023-02-09T15:30:59.517Z,10.32
2023-02-09T15:33:29.690Z,9.35
2023-02-09T15:36:00.035Z,9.80
2023-02-09T15:38:29.466Z,8.40
2023-02-09T15:41:15.666Z,8.55
2023-02-09T15:44:02.084Z,10.10
2023-02-09T15:46:49.439Z,9.80
2023-02-09T15:49:17.841Z,9.57
2023-02-09T15:51:45.999Z,9.13
2023-02-09T15:54:17.870Z,8.60
2023-02-09T15:56:47.332Z,8.10
2023-02-09T15:59:18.992Z,10.30
2023-02-09T16:01:49.683Z,8.23
2023-02-09T16:04:18.290Z,10.43
2023-02-09T16:06:54.414Z,10.52
2023-02-09T16:09:26.830Z,9.75
2023-02-09T16:11:55.671Z,8.02
2023-02-09T16:14:27.065Z,9.38
2023-02-09T16:16:57.512Z,8.30
2023-02-09T16:19:25.690Z,9.00
2023-02-09T16:21:56.902Z,8.75
2023-02-09T16:24:31.433Z,8.70
2023-02-09T16:27:01.202Z,8.95
2023-02-09T16:29:29.883Z,8.40
2023-02-09T16:31:59.280Z,8.25
2023-02-09T16:34:28.136Z,9.60
2023-02-09T16:36:56.330Z,10.32
2023-02-09T16:39:24.554Z,10.00
2023-02-09T16:41:53.555Z,9.30
2023-02-09T16:44:23.848Z,8.15
2023-02-09T16:46:54.379Z,8.40
2023-02-09T16:49:37.512Z,8.23
2023-02-09T16:52:14.375Z,9.35
2023-02-09T16:54:46.963Z,9.27
2023-02-09T16:57:18.050Z,8.32
2023-02-09T16:59:46.648Z,9.43
2023-02-09T17:02:36.072Z,8.02
2023-02-09T17:05:17.359Z,8.55
2023-02-09T17:07:54.572Z,9.05
2023-02-09T17:10:26.262Z,8.95
2023-02-09T17:12:54.734Z,9.45
2023-02-09T17:15:30.776Z,9.38
2023-02-09T17:18:02.866Z,7.57
2023-02-09T17:20:38.203Z,8.32
2023-02-09T17:23:06.791Z,8.65
2023-02-09T17:25:34.772Z,8.90
2023-02-09T17:28:03.020Z,8.93
2023-02-09T17:30:33.743Z,11.68
2023-02-09T17:33:04.830Z,8.57
2023-02-09T17:36:10.143Z,9.23
2023-02-09T17:38:29.650Z,10.07
2023-02-09T17:40:59.478Z,9.63
2023-02-09T17:43:28.072Z,9.65
2023-02-09T17:45:56.762Z,8.40
2023-02-09T17:48:25.500Z,9.30
2023-02-09T17:50:58.048Z,8.90
2023-02-09T17:53:28.826Z,9.57
2023-02-09T17:55:57.125Z,10.65
2023-02-09T17:58:26.162Z,9.13
2023-02-09T18:00:56.179Z,9.32
2023-02-09T18:03:26.175Z,9.88
2023-02-09T18:05:58.623Z,10.50
2023-02-09T18:08:27.424Z,11.02
2023-02-09T18:10:58.676Z,9.88
2023-02-09T18:13:27.350Z,9.90
2023-02-09T18:15:55.486Z,9.98
2023-02-09T18:18:24.474Z,8.88
2023-02-09T18:20:53.117Z,9.75
2023-02-09T18:23:23.485Z,10.20
2023-02-09T18:25:51.664Z,9.63
2023-02-09T18:28:19.918Z,9.30
2023-02-09T18:30:48.165Z,9.60
2023-02-09T18:33:17.156Z,9.73
2023-02-09T18:35:45.997Z,10.25
2023-02-09T18:38:15.697Z,9.45
2023-02-09T18:40:45.245Z,11.77
2023-02-09T18:43:15.589Z,9.68
2023-02-09T18:45:44.544Z,10.38
2023-02-09T18:48:13.347Z,10.10
2023-02-09T18:50:41.934Z,10.15
2023-02-09T18:53:12.025Z,9.73
2023-02-09T18:55:40.386Z,9.20
2023-02-09T18:58:10.790Z,11.15
2023-02-09T19:00:39.585Z,9.93
2023-02-09T19:03:07.848Z,9.85
2023-02-09T19:05:35.871Z,9.82
2023-02-09T19:08:04.169Z,11.55
2023-02-09T19:10:33.282Z,11.05
2023-02-09T19:13:03.134Z,11.25
2023-02-09T19:15:33.699Z,10.63
2023-02-09T19:18:02.568Z,10.88
2023-02-09T19:20:32.432Z,12.07
2023-02-09T19:23:02.490Z,12.05
2023-02-09T19:25:31.593Z,10.18
2023-02-09T19:27:59.818Z,10.00
2023-02-09T19:30:28.825Z,9.90
2023-02-09T19:33:00.218Z,10.10
2023-02-09T19:35:29.412Z,7.97
2023-02-09T19:37:58.545Z,8.60
2023-02-09T19:40:36.392Z,11.75
2023-02-09T19:43:06.233Z,9.95
2023-02-09T19:45:37.773Z,9.45
2023-02-09T19:48:08.918Z,9.50
2023-02-09T19:50:37.896Z,9.98
2023-02-09T19:53:06.908Z,8.93
2023-02-09T19:55:35.654Z,10.00
2023-02-09T19:58:03.741Z,10.27
2023-02-09T20:00:32.869Z,10.68
2023-02-09T20:03:01.240Z,8.73
2023-02-09T20:05:30.594Z,9.55
2023-02-09T20:07:58.858Z,11.30
2023-02-09T20:10:27.378Z,9.95
2023-02-09T20:12:55.420Z,10.73
2023-02-09T20:15:23.482Z,10.27
2023-02-09T20:17:52.262Z,9.82
2023-02-09T20:20:20.912Z,11.18
2023-02-09T20:22:51.589Z,10.45
2023-02-09T20:25:19.972Z,11.38
2023-02-09T20:27:50.046Z,10.57
2023-02-09T20:30:18.334Z,10.65
2023-02-09T20:32:46.584Z,9.80
2023-02-09T20:35:14.825Z,12.23
2023-02-09T20:37:43.567Z,11.68
2023-02-09T20:40:14.192Z,12.18
2023-02-09T20:42:59.666Z,11.45
2023-02-09T20:45:56.945Z,10.48
2023-02-09T20:48:25.606Z,10.05
2023-02-09T20:50:53.910Z,12.48
2023-02-09T20:53:22.585Z,11.63
2023-02-09T20:55:52.406Z,10.55
2023-02-09T20:58:20.483Z,12.55
2023-02-09T21:00:49.126Z,13.30
2023-02-09T21:03:17.425Z,14.00
2023-02-09T21:05:45.458Z,11.68
2023-02-09T21:08:13.638Z,10.95
2023-02-09T21:10:42.272Z,9.63
2023-02-09T21:15:58.721Z,11.98
2023-02-09T21:18:27.730Z,11.70
2023-02-09T21:20:56.232Z,11.95
2023-02-09T21:23:24.254Z,11.35
2023-02-09T21:26:01.176Z,10.43
2023-02-09T21:28:30.702Z,12.20
2023-02-09T21:30:59.002Z,13.70
2023-02-09T21:33:27.094Z,11.55
2023-02-09T21:35:55.336Z,11.68
2023-02-09T21:38:23.454Z,10.65
2023-02-09T21:40:51.459Z,11.65
2023-02-09T21:43:19.999Z,13.32
2023-02-09T21:45:49.492Z,11.80
2023-02-09T21:48:17.582Z,12.95
2023-02-09T21:50:45.617Z,13.05
2023-02-09T21:53:13.666Z,13.05
2023-02-09T21:55:41.932Z,13.60
2023-02-09T21:58:10.181Z,12.88
2023-02-09T22:00:38.660Z,12.90
2023-02-09T22:03:08.178Z,11.75
2023-02-09T22:05:36.453Z,13.25
2023-02-09T22:08:04.746Z,10.93
2023-02-09T22:10:32.817Z,12.38
2023-02-09T22:13:08.510Z,11.68
2023-02-09T22:15:40.487Z,12.25
2023-02-09T22:18:11.338Z,12.18
2023-02-09T22:20:41.307Z,13.38
2023-02-09T22:23:09.580Z,12.82
2023-02-09T22:25:37.783Z,11.27
2023-02-09T22:28:05.961Z,14.15
2023-02-09T22:30:34.633Z,13.15
2023-02-09T22:33:03.300Z,13.25
2023-02-09T22:35:33.075Z,11.45
2023-02-09T22:38:01.168Z,11.45
2023-02-09T22:40:29.334Z,11.32
2023-02-09T22:42:57.415Z,11.18
2023-02-09T22:45:25.880Z,12.30
2023-02-09T22:47:53.908Z,11.60
2023-02-09T22:50:22.148Z,9.27
2023-02-09T22:52:51.879Z,10.75
2023-02-09T22:55:20.054Z,10.43
2023-02-09T22:57:48.143Z,11.20
2023-02-09T23:00:17.483Z,11.70
2023-02-09T23:02:45.526Z,10.32
2023-02-09T23:05:13.646Z,12.77
2023-02-09T23:07:43.389Z,11.65
2023-02-09T23:10:13.441Z,11.50
2023-02-09T23:12:41.558Z,12.95
2023-02-09T23:15:10.514Z,13.02
2023-02-09T23:17:38.601Z,13.60
2023-02-09T23:20:07.309Z,14.63
2023-02-09T23:22:35.703Z,14.43
2023-02-09T23:25:03.760Z,15.52
2023-02-09T23:27:33.289Z,14.55
2023-02-09T23:30:01.223Z,15.80
2023-02-09T23:32:29.432Z,13.30
2023-02-09T23:34:57.694Z,15.85
2023-02-09T23:37:37.270Z,16.90
2023-02-09T23:40:06.402Z,16.80
2023-02-09T23:42:36.644Z,16.45
2023-02-09T23:45:06.364Z,14.45
2023-02-09T23:47:34.706Z,15.10
2023-02-09T23:50:02.797Z,16.15
2023-02-09T23:52:31.104Z,16.05
2023-02-09T23:54:59.274Z,16.75
2023-02-09T23:57:27.281Z,16.48
2023-02-09T23:59:56.988Z,14.73
